Time;durP1;ratioP1;P1;durP2;ratioP2;P2;SDS_P1;SDS_P2;PMS_P1;PMS_P2;Temp;Humidity;BMP_temperature;BMP_pressure;BME280_temperature;BME280_humidity;BME280_pressure;Samples;Min_cycle;Max_cycle;Signal;HPM_P1;HPM_P2
2021/04/17 00:08:17;;;;;;;71.90;34.90;;;;;;;6.31;100.00;100584.50;20803047;28;20228;-56
2021/04/17 00:18:18;;;;;;;67.23;34.40;;;;;;;6.25;100.00;100580.34;20783056;28;20224;-67
2021/04/17 00:28:18;;;;;;;51.63;31.93;;;;;;;6.08;100.00;100578.41;20799873;28;20474;-59
2021/04/17 00:38:19;;;;;;;71.50;37.30;;;;;;;5.98;100.00;100571.75;20787269;28;20276;-66
2021/04/17 00:48:19;;;;;;;67.33;35.47;;;;;;;6.04;100.00;100571.50;20802366;28;20227;-61
2021/04/17 00:58:20;;;;;;;71.40;35.20;;;;;;;6.08;100.00;100567.81;20793955;28;20233;-56
2021/04/17 01:08:28;;;;;;;66.87;32.63;;;;;;;6.04;100.00;100560.03;20783821;28;20943;-56
2021/04/17 01:18:29;;;;;;;65.07;31.77;;;;;;;6.03;100.00;100575.09;20798484;28;20472;-56
2021/04/17 01:28:33;;;;;;;51.13;29.87;;;;;;;5.92;100.00;100566.72;20777172;28;20715;-56
2021/04/17 01:38:39;;;;;;;72.87;34.60;;;;;;;5.97;100.00;100564.75;20796885;28;20453;-55
2021/04/17 01:48:41;;;;;;;59.13;29.57;;;;;;;5.98;100.00;100561.16;20785784;28;20227;-60
2021/04/17 01:58:42;;;;;;;62.53;31.90;;;;;;;5.95;100.00;100561.28;20812410;28;20721;-58
2021/04/17 02:08:44;;;;;;;61.23;29.20;;;;;;;5.98;100.00;100563.81;20797245;28;20609;-60
2021/04/17 02:18:53;;;;;;;69.83;33.03;;;;;;;5.98;100.00;100566.47;20804917;28;20592;-55
2021/04/17 02:28:54;;;;;;;67.50;32.30;;;;;;;5.97;100.00;100570.03;20803042;28;20232;-56
2021/04/17 02:38:55;;;;;;;83.27;34.73;;;;;;;5.99;100.00;100562.91;20795876;28;20748;-55
2021/04/17 02:49:02;;;;;;;84.07;37.30;;;;;;;6.00;100.00;100564.63;20808909;28;20281;-55
2021/04/17 02:59:03;;;;;;;56.90;30.23;;;;;;;6.05;100.00;100573.22;20787620;28;20298;-58
2021/04/17 03:09:04;;;;;;;80.23;35.03;;;;;;;6.16;100.00;100575.41;20807396;28;20224;-55
2021/04/17 03:19:04;;;;;;;83.50;33.77;;;;;;;6.31;100.00;100568.63;20785308;28;20462;-56
2021/04/17 03:29:05;;;;;;;72.87;31.40;;;;;;;6.37;100.00;100568.38;20806107;28;20303;-55
2021/04/17 03:39:05;;;;;;;75.87;32.83;;;;;;;6.35;100.00;100576.38;20793485;28;20996;-56
2021/04/17 03:49:06;;;;;;;92.82;33.13;;;;;;;6.43;100.00;100579.56;20799719;28;20819;-56
2021/04/17 03:59:06;;;;;;;97.20;33.47;;;;;;;6.49;100.00;100583.75;20795401;28;20226;-62
2021/04/17 04:09:13;;;;;;;92.00;33.40;;;;;;;6.49;100.00;100594.34;20790330;28;20234;-57
2021/04/17 04:19:14;;;;;;;76.50;28.20;;;;;;;6.54;100.00;100602.94;20801071;28;20773;-59
2021/04/17 04:29:14;;;;;;;86.95;31.50;;;;;;;6.56;100.00;100611.69;20781867;28;20236;-59
2021/04/17 04:39:15;;;;;;;89.57;32.53;;;;;;;6.61;100.00;100604.41;20799680;28;20623;-57
2021/04/17 04:49:22;;;;;;;87.90;34.80;;;;;;;6.70;100.00;100609.31;20780647;28;20640;-58
2021/04/17 04:59:23;;;;;;;97.57;33.63;;;;;;;6.75;100.00;100623.25;20800308;28;20240;-56
2021/04/17 05:09:25;;;;;;;93.77;33.83;;;;;;;6.85;100.00;100613.97;20783741;28;20256;-58
2021/04/17 05:19:26;;;;;;;92.70;32.47;;;;;;;7.01;100.00;100634.47;20779743;28;20223;-56
2021/04/17 05:29:26;;;;;;;57.37;24.10;;;;;;;7.18;100.00;100631.94;20806188;28;20224;-63
2021/04/17 05:39:34;;;;;;;98.50;31.27;;;;;;;7.41;100.00;100631.75;20833372;28;20238;-56
2021/04/17 05:49:34;;;;;;;136.33;36.73;;;;;;;7.67;100.00;100635.84;20853950;28;20235;-55
2021/04/17 05:59:35;;;;;;;103.53;33.17;;;;;;;7.83;100.00;100646.63;20841872;28;21003;-55
2021/04/17 06:09:48;;;;;;;104.70;35.57;;;;;;;8.03;100.00;100638.53;20864649;28;20969;-55
2021/04/17 06:19:49;;;;;;;97.30;32.67;;;;;;;8.23;100.00;100645.53;20848282;28;20235;-58
2021/04/17 06:29:49;;;;;;;112.43;34.63;;;;;;;8.39;100.00;100658.97;20842998;28;20231;-57
2021/04/17 06:39:50;;;;;;;114.73;34.70;;;;;;;8.56;100.00;100665.16;20844161;28;20964;-57
2021/04/17 06:49:50;;;;;;;110.67;35.93;;;;;;;8.49;100.00;100665.53;20840378;28;20286;-58
2021/04/17 06:59:51;;;;;;;93.30;32.33;;;;;;;8.45;100.00;100669.31;20828660;28;20220;-57
2021/04/17 07:09:52;;;;;;;109.17;34.57;;;;;;;8.57;100.00;100677.50;20831270;28;20224;-57
2021/04/17 07:20:02;;;;;;;110.90;36.33;;;;;;;8.84;100.00;100679.69;20836443;28;20242;-63
2021/04/17 07:30:28;;;;;;;72.53;29.50;;;;;;;9.00;100.00;100689.50;20824448;28;20362;-57
2021/04/17 07:40:28;;;;;;;94.77;33.60;;;;;;;8.97;100.00;100697.63;20834769;28;20225;-59
2021/04/17 07:50:33;;;;;;;83.63;31.90;;;;;;;9.24;100.00;100699.81;20817088;28;20361;-61
2021/04/17 08:00:33;;;;;;;68.90;28.37;;;;;;;9.45;100.00;100703.97;20836697;28;20230;-57
2021/04/17 08:10:34;;;;;;;78.37;30.77;;;;;;;9.54;100.00;100699.97;20817145;28;20683;-61
2021/04/17 08:20:35;;;;;;;107.70;37.23;;;;;;;9.51;100.00;100705.47;20832968;28;20473;-58
2021/04/17 08:30:35;;;;;;;83.90;29.45;;;;;;;9.69;100.00;100707.13;20821963;28;20463;-60
2021/04/17 08:40:36;;;;;;;161.83;44.87;;;;;;;9.98;100.00;100713.53;20826892;28;20247;-57
2021/04/17 08:50:40;;;;;;;149.43;43.70;;;;;;;10.00;100.00;100716.97;20827268;28;20241;-55
2021/04/17 09:00:45;;;;;;;131.43;41.83;;;;;;;10.11;100.00;100717.25;20830897;28;20261;-55
2021/04/17 09:10:46;;;;;;;140.80;44.10;;;;;;;10.59;100.00;100715.44;20846826;28;20260;-59
2021/04/17 09:20:47;;;;;;;120.10;40.90;;;;;;;10.94;100.00;100722.22;20829745;28;20325;-55
2021/04/17 09:30:49;;;;;;;129.13;38.80;;;;;;;11.15;100.00;100720.94;20846160;28;21121;-55
2021/04/17 09:40:54;;;;;;;125.27;40.47;;;;;;;11.19;100.00;100732.31;20827835;28;20230;-61
2021/04/17 09:50:58;;;;;;;116.70;38.27;;;;;;;11.07;100.00;100744.59;20845146;28;20245;-55
2021/04/17 10:01:11;;;;;;;128.30;37.97;;;;;;;10.96;100.00;100752.38;20829417;28;20336;-56
2021/04/17 10:11:21;;;;;;;124.70;38.77;;;;;;;10.86;100.00;100751.19;20837810;28;20872;-54
2021/04/17 10:21:31;;;;;;;116.43;38.93;;;;;;;11.06;100.00;100758.88;20825486;28;20280;-62
2021/04/17 10:31:32;;;;;;;110.37;58.10;;;;;;;11.55;100.00;100761.28;20829024;28;20459;-62
2021/04/17 10:41:33;;;;;;;101.07;38.20;;;;;;;11.16;100.00;100759.19;20886979;28;20302;-62
2021/04/17 10:51:38;;;;;;;118.80;39.50;;;;;;;10.96;100.00;100752.38;20871678;28;20577;-60
2021/04/17 11:01:38;;;;;;;116.77;37.83;;;;;;;11.14;100.00;100772.63;20891104;28;20230;-61
2021/04/17 11:11:56;;;;;;;107.53;35.60;;;;;;;11.06;100.00;100769.56;20827562;28;20579;-66
2021/04/17 11:22:13;;;;;;;107.63;37.17;;;;;;;11.06;100.00;100769.56;20834553;28;20272;-55
2021/04/17 11:32:13;;;;;;;107.70;35.90;;;;;;;11.16;100.00;100775.22;20856495;28;20227;-52
2021/04/17 11:42:16;;;;;;;115.87;39.80;;;;;;;11.21;100.00;100782.97;20853692;28;21030;-52
2021/04/17 11:52:17;;;;;;;112.03;38.83;;;;;;;11.24;100.00;100790.78;20872567;28;20855;-58
2021/04/17 12:02:18;;;;;;;105.93;39.27;;;;;;;11.18;100.00;100782.19;20876807;28;20231;-53
2021/04/17 12:12:18;;;;;;;125.67;41.70;;;;;;;11.23;100.00;100778.41;20880358;28;20557;-53
2021/04/17 12:22:19;;;;;;;96.17;38.17;;;;;;;11.65;100.00;100778.47;20868806;28;20223;-59
2021/04/17 12:32:19;;;;;;;138.17;47.63;;;;;;;12.21;100.00;100768.72;20881587;28;20859;-54
2021/04/17 12:42:20;;;;;;;116.83;43.70;;;;;;;12.21;100.00;100768.72;20863746;28;20251;-53
2021/04/17 12:52:20;;;;;;;107.10;41.07;;;;;;;12.42;100.00;100769.19;20883936;28;20234;-53
2021/04/17 13:02:21;;;;;;;103.70;39.57;;;;;;;12.82;100.00;100770.09;20863343;28;20466;-55
2021/04/17 13:12:21;;;;;;;112.73;41.10;;;;;;;13.56;100.00;100756.13;20881491;28;20229;-53
2021/04/17 13:22:22;;;;;;;106.00;40.23;;;;;;;14.86;100.00;100785.19;20867657;28;20227;-61
2021/04/17 13:32:23;;;;;;;68.13;31.13;;;;;;;14.61;100.00;100770.06;20873378;28;20458;-55
2021/04/17 13:42:24;;;;;;;80.67;31.97;;;;;;;14.20;100.00;100764.97;20879239;28;20965;-53
2021/04/17 13:52:25;;;;;;;82.07;34.50;;;;;;;14.39;100.00;100770.72;20882603;28;20235;-58
2021/04/17 14:02:26;;;;;;;91.77;34.00;;;;;;;14.62;100.00;100775.28;20895624;28;20222;-53
2021/04/17 14:12:27;;;;;;;69.33;32.23;;;;;;;14.22;100.00;100769.28;20873932;28;20448;-54
2021/04/17 14:22:27;;;;;;;66.20;29.60;;;;;;;13.69;100.00;100759.66;20894339;28;20228;-53
2021/04/17 14:32:28;;;;;;;73.90;33.90;;;;;;;13.42;100.00;100746.34;20853065;28;20697;-59
2021/04/17 14:42:28;;;;;;;56.30;29.63;;;;;;;12.55;100.00;100749.56;20892568;28;20246;-52
2021/04/17 14:52:29;;;;;;;71.87;31.47;;;;;;;12.16;100.00;100752.13;20876608;28;20219;-53
2021/04/17 15:02:30;;;;;;;61.13;29.30;;;;;;;12.07;100.00;100744.69;20884725;28;20722;-53
2021/04/17 15:12:31;;;;;;;82.53;35.13;;;;;;;12.13;100.00;100739.78;20883370;28;20246;-53
2021/04/17 15:22:33;;;;;;;66.27;32.40;;;;;;;12.61;100.00;100730.38;20876841;28;20708;-52
2021/04/17 15:32:37;;;;;;;70.70;32.90;;;;;;;12.90;100.00;100716.88;20887627;28;20258;-57
2021/04/17 15:42:37;;;;;;;73.63;34.50;;;;;;;12.94;100.00;100726.41;20872814;28;20232;-73
2021/04/17 15:52:38;;;;;;;70.00;33.90;;;;;;;12.23;100.00;100734.69;20885891;28;20216;-59
2021/04/17 16:23:47;;;;;;;179.43;40.03;;;;;;;11.27;100.00;100726.47;20862815;28;20222;-53
2021/04/17 16:33:47;;;;;;;62.73;30.20;;;;;;;11.29;100.00;100738.81;20879849;28;20588;-56
2021/04/17 16:43:49;;;;;;;18.45;10.88;;;;;;;10.46;100.00;100809.53;20871536;28;20468;-59
2021/04/17 16:53:50;;;;;;;11.02;9.77;;;;;;;9.96;100.00;100752.75;20870200;28;20435;-55
2021/04/17 17:03:52;;;;;;;8.97;7.33;;;;;;;8.43;100.00;100785.53;20877114;28;20793;-55
2021/04/17 17:13:54;;;;;;;18.23;11.37;;;;;;;7.63;100.00;100792.75;20877093;28;20232;-54
2021/04/17 17:23:54;;;;;;;19.27;13.57;;;;;;;7.36;100.00;100786.88;20909192;28;20227;-54
2021/04/17 17:33:55;;;;;;;29.77;19.35;;;;;;;7.56;100.00;100777.09;20908336;28;20311;-54
2021/04/17 17:43:55;;;;;;;63.60;36.97;;;;;;;7.74;100.00;100785.16;20908645;28;20219;-57
2021/04/17 17:53:57;;;;;;;45.77;22.73;;;;;;;7.79;100.00;100791.16;20907720;28;20540;-55
2021/04/17 18:03:57;;;;;;;48.37;23.73;;;;;;;7.55;100.00;100791.31;20906572;28;20314;-57
2021/04/17 18:13:58;;;;;;;56.33;23.80;;;;;;;7.37;100.00;100797.41;20905729;28;20834;-65
2021/04/17 18:23:58;;;;;;;48.70;23.13;;;;;;;7.33;100.00;100790.53;20872895;28;20235;-57
2021/04/17 18:33:59;;;;;;;51.53;21.27;;;;;;;7.40;100.00;100789.31;20850295;28;20243;-57
2021/04/17 18:43:59;;;;;;;41.37;18.93;;;;;;;7.18;100.00;100791.19;20838980;28;20519;-59
2021/04/17 18:54:00;;;;;;;34.53;17.97;;;;;;;6.98;100.00;100788.53;20849669;28;20232;-65
2021/04/17 19:04:00;;;;;;;61.33;30.13;;;;;;;6.91;100.00;100790.56;20848804;28;20228;-59
2021/04/17 19:14:00;;;;;;;77.93;36.33;;;;;;;6.80;100.00;100812.22;20847745;28;20231;-59
2021/04/17 19:24:01;;;;;;;76.50;38.23;;;;;;;6.53;100.00;100813.31;20848005;28;20273;-55
2021/04/17 19:34:02;;;;;;;85.27;37.17;;;;;;;6.27;100.00;100809.06;20845597;28;20238;-63
2021/04/17 19:44:03;;;;;;;81.87;38.80;;;;;;;6.13;100.00;100824.63;20843869;28;20308;-63
2021/04/17 19:54:03;;;;;;;105.00;40.80;;;;;;;6.01;100.00;100828.59;20885108;28;20243;-57
2021/04/17 20:04:04;;;;;;;113.30;46.43;;;;;;;5.81;100.00;100833.72;20886957;28;20593;-55
2021/04/17 20:14:05;;;;;;;119.60;44.83;;;;;;;5.62;100.00;100825.59;20897497;28;20227;-55
2021/04/17 20:24:08;;;;;;;154.57;46.03;;;;;;;5.43;100.00;100816.59;20896580;28;20215;-56
2021/04/17 20:34:08;;;;;;;144.57;49.70;;;;;;;5.33;100.00;100831.03;20894924;28;20230;-54
2021/04/17 20:44:09;;;;;;;108.97;40.90;;;;;;;5.29;100.00;100827.66;20895755;28;20237;-54
2021/04/17 20:54:10;;;;;;;171.30;49.83;;;;;;;5.20;100.00;100822.66;20894780;28;20284;-54
2021/04/17 21:04:11;;;;;;;180.03;57.03;;;;;;;5.20;100.00;100827.06;20895001;28;20699;-57
2021/04/17 21:14:11;;;;;;;116.73;35.47;;;;;;;5.14;100.00;100844.03;20894321;28;20261;-55
2021/04/17 21:24:12;;;;;;;154.80;43.40;;;;;;;5.04;100.00;100847.91;20893245;28;20270;-54
2021/04/17 21:34:12;;;;;;;124.53;37.85;;;;;;;5.00;100.00;100846.28;20882145;28;20312;-53
2021/04/17 21:44:13;;;;;;;57.70;23.87;;;;;;;5.22;100.00;100839.34;20856848;28;20266;-54
2021/04/17 21:54:15;;;;;;;105.60;35.50;;;;;;;5.35;100.00;100856.53;20810295;28;20477;-54
2021/04/17 22:04:15;;;;;;;111.37;35.93;;;;;;;5.50;100.00;100864.88;20814563;28;20231;-53
2021/04/17 22:14:16;;;;;;;122.63;40.23;;;;;;;5.88;100.00;100860.88;20824330;28;20238;-57
2021/04/17 22:24:16;;;;;;;140.97;41.50;;;;;;;6.16;100.00;100863.41;20822035;28;20329;-55
2021/04/17 22:34:17;;;;;;;158.03;54.90;;;;;;;6.29;100.00;100872.59;20821458;28;20382;-54
2021/04/17 22:44:18;;;;;;;204.27;61.83;;;;;;;6.34;100.00;100857.38;20822016;28;20861;-61
2021/04/17 22:54:18;;;;;;;308.57;60.20;;;;;;;6.48;100.00;100857.72;20881564;28;20311;-68
2021/04/17 23:04:19;;;;;;;325.87;54.60;;;;;;;6.54;100.00;100857.47;20901447;28;20219;-67
2021/04/17 23:14:20;;;;;;;237.47;42.23;;;;;;;6.49;100.00;100854.16;20901354;28;20303;-59
2021/04/17 23:24:21;;;;;;;240.43;43.47;;;;;;;6.36;100.00;100863.50;20900033;28;20247;-62
2021/04/17 23:34:28;;;;;;;242.57;40.43;;;;;;;6.32;100.00;100870.69;20897969;28;20234;-68
2021/04/17 23:44:29;;;;;;;159.57;30.93;;;;;;;6.38;100.00;100875.78;20847301;28;20215;-67
2021/04/17 23:54:29;;;;;;;214.67;28.53;;;;;;;6.56;100.00;100882.16;20815161;28;20228;-65
